sensor_id;sensor_type;location;lat;lon;timestamp;P1;durP1;ratioP1;P2;durP2;ratioP2
40931;SDS011;36257;46.052;12.540;2023-02-12T00:00:38;11.50;;;10.32;;
40931;SDS011;36257;46.052;12.540;2023-02-12T00:03:05;11.48;;;9.70;;
40931;SDS011;36257;46.052;12.540;2023-02-12T00:05:30;9.80;;;8.80;;
40931;SDS011;36257;46.052;12.540;2023-02-12T00:07:56;27.67;;;17.30;;
40931;SDS011;36257;46.052;12.540;2023-02-12T00:10:22;81.97;;;35.17;;
40931;SDS011;36257;46.052;12.540;2023-02-12T00:12:48;76.90;;;35.37;;
40931;SDS011;36257;46.052;12.540;2023-02-12T00:15:13;54.33;;;23.97;;
40931;SDS011;36257;46.052;12.540;2023-02-12T00:17:39;15.93;;;13.13;;
40931;SDS011;36257;46.052;12.540;2023-02-12T00:20:05;12.57;;;9.07;;
40931;SDS011;36257;46.052;12.540;2023-02-12T00:22:31;12.37;;;10.00;;
40931;SDS011;36257;46.052;12.540;2023-02-12T00:24:57;11.97;;;8.87;;
40931;SDS011;36257;46.052;12.540;2023-02-12T00:27:22;11.60;;;8.93;;
40931;SDS011;36257;46.052;12.540;2023-02-12T00:29:48;10.67;;;9.27;;
40931;SDS011;36257;46.052;12.540;2023-02-12T00:32:14;14.70;;;9.47;;
40931;SDS011;36257;46.052;12.540;2023-02-12T00:34:43;12.87;;;9.73;;
40931;SDS011;36257;46.052;12.540;2023-02-12T00:37:12;12.03;;;10.30;;
40931;SDS011;36257;46.052;12.540;2023-02-12T00:39:38;13.67;;;11.43;;
40931;SDS011;36257;46.052;12.540;2023-02-12T00:42:03;14.03;;;11.00;;
40931;SDS011;36257;46.052;12.540;2023-02-12T00:44:29;17.50;;;9.83;;
40931;SDS011;36257;46.052;12.540;2023-02-12T00:46:55;9.37;;;8.53;;
40931;SDS011;36257;46.052;12.540;2023-02-12T00:49:21;11.17;;;9.90;;
40931;SDS011;36257;46.052;12.540;2023-02-12T00:51:47;11.17;;;9.97;;
40931;SDS011;36257;46.052;12.540;2023-02-12T00:54:13;12.10;;;9.60;;
40931;SDS011;36257;46.052;12.540;2023-02-12T00:56:39;11.60;;;10.50;;
40931;SDS011;36257;46.052;12.540;2023-02-12T00:59:05;10.70;;;9.50;;
40931;SDS011;36257;46.052;12.540;2023-02-12T01:01:31;11.70;;;9.73;;
40931;SDS011;36257;46.052;12.540;2023-02-12T01:03:56;14.30;;;11.23;;
40931;SDS011;36257;46.052;12.540;2023-02-12T01:06:22;27.27;;;13.73;;
40931;SDS011;36257;46.052;12.540;2023-02-12T01:08:51;17.70;;;11.63;;
40931;SDS011;36257;46.052;12.540;2023-02-12T01:11:17;13.37;;;10.73;;
40931;SDS011;36257;46.052;12.540;2023-02-12T01:13:43;15.10;;;10.87;;
40931;SDS011;36257;46.052;12.540;2023-02-12T01:16:20;11.57;;;9.03;;
40931;SDS011;36257;46.052;12.540;2023-02-12T01:18:48;14.40;;;10.03;;
40931;SDS011;36257;46.052;12.540;2023-02-12T01:21:16;12.10;;;10.82;;
40931;SDS011;36257;46.052;12.540;2023-02-12T01:23:44;13.47;;;9.67;;
40931;SDS011;36257;46.052;12.540;2023-02-12T01:26:10;10.90;;;9.73;;
40931;SDS011;36257;46.052;12.540;2023-02-12T01:28:38;13.82;;;11.68;;
40931;SDS011;36257;46.052;12.540;2023-02-12T01:31:09;12.77;;;11.07;;
40931;SDS011;36257;46.052;12.540;2023-02-12T01:33:39;11.97;;;10.00;;
40931;SDS011;36257;46.052;12.540;2023-02-12T01:36:06;12.87;;;11.47;;
40931;SDS011;36257;46.052;12.540;2023-02-12T01:38:32;11.80;;;10.00;;
40931;SDS011;36257;46.052;12.540;2023-02-12T01:41:41;12.03;;;10.53;;
40931;SDS011;36257;46.052;12.540;2023-02-12T01:46:33;11.20;;;9.87;;
40931;SDS011;36257;46.052;12.540;2023-02-12T01:48:59;9.20;;;8.30;;
40931;SDS011;36257;46.052;12.540;2023-02-12T01:51:26;12.50;;;11.20;;
40931;SDS011;36257;46.052;12.540;2023-02-12T01:53:53;12.53;;;10.47;;
40931;SDS011;36257;46.052;12.540;2023-02-12T01:56:22;14.17;;;10.13;;
40931;SDS011;36257;46.052;12.540;2023-02-12T01:58:49;10.30;;;8.60;;
40931;SDS011;36257;46.052;12.540;2023-02-12T02:01:20;9.23;;;8.23;;
40931;SDS011;36257;46.052;12.540;2023-02-12T02:03:50;11.20;;;9.43;;
40931;SDS011;36257;46.052;12.540;2023-02-12T02:06:20;10.10;;;9.00;;
40931;SDS011;36257;46.052;12.540;2023-02-12T02:08:51;11.20;;;9.17;;
40931;SDS011;36257;46.052;12.540;2023-02-12T02:11:18;11.13;;;9.60;;
40931;SDS011;36257;46.052;12.540;2023-02-12T02:14:02;13.20;;;10.43;;
40931;SDS011;36257;46.052;12.540;2023-02-12T02:16:49;10.37;;;8.93;;
40931;SDS011;36257;46.052;12.540;2023-02-12T02:24:57;8.37;;;7.53;;
40931;SDS011;36257;46.052;12.540;2023-02-12T02:33:03;10.27;;;8.83;;
40931;SDS011;36257;46.052;12.540;2023-02-12T02:36:04;9.60;;;8.60;;
40931;SDS011;36257;46.052;12.540;2023-02-12T02:41:09;11.57;;;8.97;;
40931;SDS011;36257;46.052;12.540;2023-02-12T02:43:44;11.07;;;9.60;;
40931;SDS011;36257;46.052;12.540;2023-02-12T02:46:14;10.77;;;9.07;;
40931;SDS011;36257;46.052;12.540;2023-02-12T02:48:48;10.93;;;9.83;;
40931;SDS011;36257;46.052;12.540;2023-02-12T02:51:19;12.10;;;10.77;;
40931;SDS011;36257;46.052;12.540;2023-02-12T02:54:22;11.70;;;8.93;;
40931;SDS011;36257;46.052;12.540;2023-02-12T02:56:46;14.35;;;10.98;;
40931;SDS011;36257;46.052;12.540;2023-02-12T02:59:16;12.17;;;10.93;;
40931;SDS011;36257;46.052;12.540;2023-02-12T03:01:52;11.40;;;10.00;;
40931;SDS011;36257;46.052;12.540;2023-02-12T03:04:26;8.70;;;7.80;;
40931;SDS011;36257;46.052;12.540;2023-02-12T03:06:59;9.30;;;8.17;;
40931;SDS011;36257;46.052;12.540;2023-02-12T03:12:04;12.07;;;10.87;;
40931;SDS011;36257;46.052;12.540;2023-02-12T03:14:36;13.50;;;9.70;;
40931;SDS011;36257;46.052;12.540;2023-02-12T03:17:08;9.73;;;8.57;;
40931;SDS011;36257;46.052;12.540;2023-02-12T03:19:42;9.27;;;8.53;;
40931;SDS011;36257;46.052;12.540;2023-02-12T03:22:18;8.73;;;7.90;;
40931;SDS011;36257;46.052;12.540;2023-02-12T03:27:40;11.93;;;9.80;;
40931;SDS011;36257;46.052;12.540;2023-02-12T03:30:19;12.47;;;10.63;;
40931;SDS011;36257;46.052;12.540;2023-02-12T03:35:20;14.53;;;10.10;;
40931;SDS011;36257;46.052;12.540;2023-02-12T03:41:19;12.47;;;10.60;;
40931;SDS011;36257;46.052;12.540;2023-02-12T03:47:23;13.97;;;10.33;;
40931;SDS011;36257;46.052;12.540;2023-02-12T03:54:59;13.67;;;10.53;;
40931;SDS011;36257;46.052;12.540;2023-02-12T03:57:26;13.40;;;9.97;;
40931;SDS011;36257;46.052;12.540;2023-02-12T03:59:58;11.53;;;9.60;;
40931;SDS011;36257;46.052;12.540;2023-02-12T04:02:28;14.10;;;10.20;;
40931;SDS011;36257;46.052;12.540;2023-02-12T04:04:54;11.23;;;10.07;;
40931;SDS011;36257;46.052;12.540;2023-02-12T04:07:20;9.77;;;8.27;;
40931;SDS011;36257;46.052;12.540;2023-02-12T04:09:46;9.07;;;8.20;;
40931;SDS011;36257;46.052;12.540;2023-02-12T04:22:53;9.67;;;8.50;;
40931;SDS011;36257;46.052;12.540;2023-02-12T04:25:42;9.83;;;8.90;;
40931;SDS011;36257;46.052;12.540;2023-02-12T04:31:38;11.88;;;9.50;;
40931;SDS011;36257;46.052;12.540;2023-02-12T04:34:17;8.73;;;7.83;;
40931;SDS011;36257;46.052;12.540;2023-02-12T04:36:45;10.10;;;8.00;;
40931;SDS011;36257;46.052;12.540;2023-02-12T04:39:26;8.33;;;7.50;;
40931;SDS011;36257;46.052;12.540;2023-02-12T04:41:53;9.83;;;8.83;;
40931;SDS011;36257;46.052;12.540;2023-02-12T04:44:24;10.50;;;8.67;;
40931;SDS011;36257;46.052;12.540;2023-02-12T04:46:52;9.13;;;8.23;;
40931;SDS011;36257;46.052;12.540;2023-02-12T04:49:18;10.93;;;9.53;;
40931;SDS011;36257;46.052;12.540;2023-02-12T04:51:45;11.15;;;10.00;;
40931;SDS011;36257;46.052;12.540;2023-02-12T04:54:12;13.70;;;10.60;;
40931;SDS011;36257;46.052;12.540;2023-02-12T04:56:39;20.63;;;12.80;;
40931;SDS011;36257;46.052;12.540;2023-02-12T04:59:04;12.47;;;9.87;;
40931;SDS011;36257;46.052;12.540;2023-02-12T05:01:32;13.53;;;10.37;;
40931;SDS011;36257;46.052;12.540;2023-02-12T05:03:59;11.97;;;9.87;;
40931;SDS011;36257;46.052;12.540;2023-02-12T05:06:24;13.17;;;10.13;;
40931;SDS011;36257;46.052;12.540;2023-02-12T05:08:53;13.33;;;10.37;;
40931;SDS011;36257;46.052;12.540;2023-02-12T05:11:19;11.40;;;10.20;;
40931;SDS011;36257;46.052;12.540;2023-02-12T05:13:48;10.90;;;9.17;;
40931;SDS011;36257;46.052;12.540;2023-02-12T05:16:15;12.47;;;8.67;;
40931;SDS011;36257;46.052;12.540;2023-02-12T05:18:41;11.07;;;9.83;;
40931;SDS011;36257;46.052;12.540;2023-02-12T05:21:07;13.13;;;10.10;;
40931;SDS011;36257;46.052;12.540;2023-02-12T05:23:33;10.13;;;9.00;;
40931;SDS011;36257;46.052;12.540;2023-02-12T05:26:02;9.03;;;8.23;;
40931;SDS011;36257;46.052;12.540;2023-02-12T05:28:29;9.67;;;8.10;;
40931;SDS011;36257;46.052;12.540;2023-02-12T05:30:58;9.27;;;8.30;;
40931;SDS011;36257;46.052;12.540;2023-02-12T05:33:28;12.17;;;10.07;;
40931;SDS011;36257;46.052;12.540;2023-02-12T05:35:54;10.40;;;8.83;;
40931;SDS011;36257;46.052;12.540;2023-02-12T05:38:19;10.30;;;9.10;;
40931;SDS011;36257;46.052;12.540;2023-02-12T05:40:45;10.90;;;8.90;;
40931;SDS011;36257;46.052;12.540;2023-02-12T05:43:11;10.23;;;9.13;;
40931;SDS011;36257;46.052;12.540;2023-02-12T05:45:37;10.13;;;9.03;;
40931;SDS011;36257;46.052;12.540;2023-02-12T05:50:31;9.27;;;8.37;;
40931;SDS011;36257;46.052;12.540;2023-02-12T05:52:58;9.80;;;7.40;;
40931;SDS011;36257;46.052;12.540;2023-02-12T05:55:24;10.00;;;8.13;;
40931;SDS011;36257;46.052;12.540;2023-02-12T05:57:50;13.97;;;9.77;;
40931;SDS011;36257;46.052;12.540;2023-02-12T06:00:15;10.63;;;9.60;;
40931;SDS011;36257;46.052;12.540;2023-02-12T06:02:41;10.90;;;9.43;;
40931;SDS011;36257;46.052;12.540;2023-02-12T06:05:07;10.87;;;8.83;;
40931;SDS011;36257;46.052;12.540;2023-02-12T06:07:32;10.43;;;9.27;;
40931;SDS011;36257;46.052;12.540;2023-02-12T06:09:58;14.10;;;11.03;;
40931;SDS011;36257;46.052;12.540;2023-02-12T06:12:23;13.47;;;10.10;;
40931;SDS011;36257;46.052;12.540;2023-02-12T06:14:49;14.30;;;10.03;;
40931;SDS011;36257;46.052;12.540;2023-02-12T06:17:15;10.97;;;9.33;;
40931;SDS011;36257;46.052;12.540;2023-02-12T06:19:40;11.00;;;8.70;;
40931;SDS011;36257;46.052;12.540;2023-02-12T06:22:06;9.77;;;7.83;;
40931;SDS011;36257;46.052;12.540;2023-02-12T06:24:32;11.10;;;8.73;;
40931;SDS011;36257;46.052;12.540;2023-02-12T06:26:57;10.13;;;9.10;;
40931;SDS011;36257;46.052;12.540;2023-02-12T06:29:23;9.90;;;8.90;;
40931;SDS011;36257;46.052;12.540;2023-02-12T06:31:49;10.37;;;9.37;;
40931;SDS011;36257;46.052;12.540;2023-02-12T06:34:14;13.97;;;10.77;;
40931;SDS011;36257;46.052;12.540;2023-02-12T06:36:43;14.50;;;10.57;;
40931;SDS011;36257;46.052;12.540;2023-02-12T06:39:11;14.43;;;9.80;;
40931;SDS011;36257;46.052;12.540;2023-02-12T06:41:38;11.33;;;10.13;;
40931;SDS011;36257;46.052;12.540;2023-02-12T06:44:04;10.17;;;9.17;;
40931;SDS011;36257;46.052;12.540;2023-02-12T06:46:30;14.97;;;10.20;;
40931;SDS011;36257;46.052;12.540;2023-02-12T06:48:57;11.17;;;9.80;;
40931;SDS011;36257;46.052;12.540;2023-02-12T06:51:25;17.70;;;11.90;;
40931;SDS011;36257;46.052;12.540;2023-02-12T06:53:52;18.38;;;14.65;;
40931;SDS011;36257;46.052;12.540;2023-02-12T06:56:19;18.95;;;16.00;;
40931;SDS011;36257;46.052;12.540;2023-02-12T06:58:47;20.65;;;16.63;;
40931;SDS011;36257;46.052;12.540;2023-02-12T07:01:19;23.37;;;18.67;;
40931;SDS011;36257;46.052;12.540;2023-02-12T07:03:47;24.83;;;20.10;;
40931;SDS011;36257;46.052;12.540;2023-02-12T07:06:14;30.00;;;22.53;;
40931;SDS011;36257;46.052;12.540;2023-02-12T07:08:40;30.73;;;20.80;;
40931;SDS011;36257;46.052;12.540;2023-02-12T07:11:06;32.33;;;22.43;;
40931;SDS011;36257;46.052;12.540;2023-02-12T07:13:32;25.77;;;19.30;;
40931;SDS011;36257;46.052;12.540;2023-02-12T07:16:04;25.97;;;20.93;;
40931;SDS011;36257;46.052;12.540;2023-02-12T07:18:38;27.65;;;18.20;;
40931;SDS011;36257;46.052;12.540;2023-02-12T07:21:04;26.50;;;19.17;;
40931;SDS011;36257;46.052;12.540;2023-02-12T07:23:32;20.70;;;17.38;;
40931;SDS011;36257;46.052;12.540;2023-02-12T07:25:58;20.73;;;16.07;;
40931;SDS011;36257;46.052;12.540;2023-02-12T07:28:26;25.50;;;19.50;;
40931;SDS011;36257;46.052;12.540;2023-02-12T07:30:52;26.73;;;18.63;;
40931;SDS011;36257;46.052;12.540;2023-02-12T07:33:18;27.67;;;21.23;;
40931;SDS011;36257;46.052;12.540;2023-02-12T07:35:44;29.03;;;21.93;;
40931;SDS011;36257;46.052;12.540;2023-02-12T07:38:10;28.00;;;21.77;;
40931;SDS011;36257;46.052;12.540;2023-02-12T07:40:36;32.10;;;23.57;;
40931;SDS011;36257;46.052;12.540;2023-02-12T07:43:02;37.93;;;25.57;;
40931;SDS011;36257;46.052;12.540;2023-02-12T07:45:28;35.00;;;27.73;;
40931;SDS011;36257;46.052;12.540;2023-02-12T07:47:53;36.10;;;30.57;;
40931;SDS011;36257;46.052;12.540;2023-02-12T07:50:19;38.20;;;29.30;;
40931;SDS011;36257;46.052;12.540;2023-02-12T07:52:47;35.20;;;26.70;;
40931;SDS011;36257;46.052;12.540;2023-02-12T07:55:14;38.23;;;28.17;;
40931;SDS011;36257;46.052;12.540;2023-02-12T07:57:40;37.73;;;28.47;;
40931;SDS011;36257;46.052;12.540;2023-02-12T08:00:06;42.17;;;30.13;;
40931;SDS011;36257;46.052;12.540;2023-02-12T08:02:32;43.40;;;29.45;;
40931;SDS011;36257;46.052;12.540;2023-02-12T08:04:58;59.60;;;42.20;;
40931;SDS011;36257;46.052;12.540;2023-02-12T08:07:24;55.57;;;39.13;;
40931;SDS011;36257;46.052;12.540;2023-02-12T08:09:50;44.73;;;31.17;;
40931;SDS011;36257;46.052;12.540;2023-02-12T08:12:16;39.33;;;28.43;;
40931;SDS011;36257;46.052;12.540;2023-02-12T08:14:42;41.23;;;30.00;;
40931;SDS011;36257;46.052;12.540;2023-02-12T08:17:08;38.43;;;28.00;;
40931;SDS011;36257;46.052;12.540;2023-02-12T08:19:34;36.53;;;27.33;;
40931;SDS011;36257;46.052;12.540;2023-02-12T08:22:00;40.30;;;26.37;;
40931;SDS011;36257;46.052;12.540;2023-02-12T08:24:27;37.40;;;26.08;;
40931;SDS011;36257;46.052;12.540;2023-02-12T08:26:54;46.00;;;29.65;;
40931;SDS011;36257;46.052;12.540;2023-02-12T08:29:29;30.20;;;19.53;;
40931;SDS011;36257;46.052;12.540;2023-02-12T08:31:58;21.07;;;16.13;;
40931;SDS011;36257;46.052;12.540;2023-02-12T08:34:27;30.77;;;23.30;;
40931;SDS011;36257;46.052;12.540;2023-02-12T08:36:55;37.23;;;27.13;;
40931;SDS011;36257;46.052;12.540;2023-02-12T08:39:21;39.03;;;27.97;;
40931;SDS011;36257;46.052;12.540;2023-02-12T08:41:48;40.15;;;30.50;;
40931;SDS011;36257;46.052;12.540;2023-02-12T08:44:15;42.50;;;31.93;;
40931;SDS011;36257;46.052;12.540;2023-02-12T08:46:45;37.93;;;28.30;;
40931;SDS011;36257;46.052;12.540;2023-02-12T08:49:13;38.13;;;28.33;;
40931;SDS011;36257;46.052;12.540;2023-02-12T08:51:44;38.27;;;27.80;;
40931;SDS011;36257;46.052;12.540;2023-02-12T08:54:14;40.65;;;28.40;;
40931;SDS011;36257;46.052;12.540;2023-02-12T08:56:43;37.10;;;26.30;;
40931;SDS011;36257;46.052;12.540;2023-02-12T08:59:12;35.05;;;27.33;;
40931;SDS011;36257;46.052;12.540;2023-02-12T09:01:39;36.95;;;29.08;;
40931;SDS011;36257;46.052;12.540;2023-02-12T09:04:05;37.38;;;29.35;;
40931;SDS011;36257;46.052;12.540;2023-02-12T09:06:33;40.20;;;29.15;;
40931;SDS011;36257;46.052;12.540;2023-02-12T09:09:00;38.50;;;26.63;;
40931;SDS011;36257;46.052;12.540;2023-02-12T09:11:27;36.55;;;28.08;;
40931;SDS011;36257;46.052;12.540;2023-02-12T09:14:03;35.70;;;27.90;;
40931;SDS011;36257;46.052;12.540;2023-02-12T09:16:31;36.47;;;26.23;;
40931;SDS011;36257;46.052;12.540;2023-02-12T09:18:58;33.90;;;25.95;;
40931;SDS011;36257;46.052;12.540;2023-02-12T09:21:25;40.67;;;28.73;;
40931;SDS011;36257;46.052;12.540;2023-02-12T09:23:50;37.13;;;27.27;;
40931;SDS011;36257;46.052;12.540;2023-02-12T09:26:17;36.70;;;27.75;;
40931;SDS011;36257;46.052;12.540;2023-02-12T09:28:44;33.70;;;24.85;;
40931;SDS011;36257;46.052;12.540;2023-02-12T09:31:12;34.72;;;26.17;;
40931;SDS011;36257;46.052;12.540;2023-02-12T09:33:39;29.08;;;22.67;;
40931;SDS011;36257;46.052;12.540;2023-02-12T09:36:06;25.25;;;19.67;;
40931;SDS011;36257;46.052;12.540;2023-02-12T09:38:34;24.67;;;18.75;;
40931;SDS011;36257;46.052;12.540;2023-02-12T09:41:07;26.65;;;19.17;;
40931;SDS011;36257;46.052;12.540;2023-02-12T09:44:05;20.15;;;17.40;;
40931;SDS011;36257;46.052;12.540;2023-02-12T09:52:16;14.85;;;12.18;;
40931;SDS011;36257;46.052;12.540;2023-02-12T09:54:48;18.23;;;13.82;;
40931;SDS011;36257;46.052;12.540;2023-02-12T09:59:58;11.65;;;8.85;;
40931;SDS011;36257;46.052;12.540;2023-02-12T10:02:30;13.52;;;10.38;;
40931;SDS011;36257;46.052;12.540;2023-02-12T10:04:58;15.25;;;11.73;;
40931;SDS011;36257;46.052;12.540;2023-02-12T10:13:06;11.95;;;10.75;;
40931;SDS011;36257;46.052;12.540;2023-02-12T10:15:39;11.57;;;8.85;;
40931;SDS011;36257;46.052;12.540;2023-02-12T10:29:00;7.40;;;5.88;;
40931;SDS011;36257;46.052;12.540;2023-02-12T10:31:36;11.35;;;8.32;;
40931;SDS011;36257;46.052;12.540;2023-02-12T10:34:10;10.45;;;9.25;;
40931;SDS011;36257;46.052;12.540;2023-02-12T10:36:46;12.05;;;10.07;;
40931;SDS011;36257;46.052;12.540;2023-02-12T10:39:34;12.02;;;9.00;;
40931;SDS011;36257;46.052;12.540;2023-02-12T10:44:36;12.00;;;10.25;;
40931;SDS011;36257;46.052;12.540;2023-02-12T10:47:02;10.45;;;8.77;;
40931;SDS011;36257;46.052;12.540;2023-02-12T10:49:29;10.57;;;9.38;;
40931;SDS011;36257;46.052;12.540;2023-02-12T10:52:04;12.77;;;9.43;;
40931;SDS011;36257;46.052;12.540;2023-02-12T10:57:19;8.80;;;7.85;;
40931;SDS011;36257;46.052;12.540;2023-02-12T10:59:47;10.98;;;8.68;;
40931;SDS011;36257;46.052;12.540;2023-02-12T11:02:28;9.18;;;7.53;;
40931;SDS011;36257;46.052;12.540;2023-02-12T11:04:58;7.63;;;6.82;;
40931;SDS011;36257;46.052;12.540;2023-02-12T11:07:27;10.63;;;7.97;;
40931;SDS011;36257;46.052;12.540;2023-02-12T11:09:53;11.35;;;8.80;;
40931;SDS011;36257;46.052;12.540;2023-02-12T11:14:58;11.07;;;8.88;;
40931;SDS011;36257;46.052;12.540;2023-02-12T11:17:29;6.93;;;5.20;;
40931;SDS011;36257;46.052;12.540;2023-02-12T11:20:40;4.35;;;3.72;;
40931;SDS011;36257;46.052;12.540;2023-02-12T11:22:55;3.03;;;2.60;;
40931;SDS011;36257;46.052;12.540;2023-02-12T11:25:23;5.53;;;2.75;;
40931;SDS011;36257;46.052;12.540;2023-02-12T11:38:35;3.63;;;3.00;;
40931;SDS011;36257;46.052;12.540;2023-02-12T11:41:08;3.20;;;2.90;;
40931;SDS011;36257;46.052;12.540;2023-02-12T11:44:10;3.90;;;3.08;;
40931;SDS011;36257;46.052;12.540;2023-02-12T11:46:49;3.78;;;3.45;;
40931;SDS011;36257;46.052;12.540;2023-02-12T11:49:27;4.25;;;3.53;;
40931;SDS011;36257;46.052;12.540;2023-02-12T11:51:56;5.32;;;3.47;;
40931;SDS011;36257;46.052;12.540;2023-02-12T11:56:53;4.85;;;3.38;;
40931;SDS011;36257;46.052;12.540;2023-02-12T11:59:35;5.07;;;3.15;;
40931;SDS011;36257;46.052;12.540;2023-02-12T12:05:00;4.95;;;3.05;;
40931;SDS011;36257;46.052;12.540;2023-02-12T12:07:32;4.30;;;3.15;;
40931;SDS011;36257;46.052;12.540;2023-02-12T12:10:02;5.13;;;3.60;;
40931;SDS011;36257;46.052;12.540;2023-02-12T12:20:51;3.33;;;2.72;;
40931;SDS011;36257;46.052;12.540;2023-02-12T12:23:30;3.85;;;2.90;;
40931;SDS011;36257;46.052;12.540;2023-02-12T12:26:09;3.90;;;3.28;;
40931;SDS011;36257;46.052;12.540;2023-02-12T12:31:26;3.70;;;2.70;;
40931;SDS011;36257;46.052;12.540;2023-02-12T12:34:04;4.60;;;3.38;;
40931;SDS011;36257;46.052;12.540;2023-02-12T12:51:29;4.47;;;3.67;;
40931;SDS011;36257;46.052;12.540;2023-02-12T13:13:30;5.03;;;4.53;;
40931;SDS011;36257;46.052;12.540;2023-02-12T13:16:19;6.82;;;5.78;;
40931;SDS011;36257;46.052;12.540;2023-02-12T13:24:15;7.40;;;5.20;;
40931;SDS011;36257;46.052;12.540;2023-02-12T13:32:05;6.75;;;6.05;;
40931;SDS011;36257;46.052;12.540;2023-02-12T13:34:38;6.03;;;5.43;;
40931;SDS011;36257;46.052;12.540;2023-02-12T13:37:05;12.07;;;6.45;;
40931;SDS011;36257;46.052;12.540;2023-02-12T13:39:35;8.05;;;7.07;;
40931;SDS011;36257;46.052;12.540;2023-02-12T13:47:10;8.20;;;6.88;;
40931;SDS011;36257;46.052;12.540;2023-02-12T13:50:02;10.20;;;7.82;;
40931;SDS011;36257;46.052;12.540;2023-02-12T14:00:57;11.02;;;8.38;;
40931;SDS011;36257;46.052;12.540;2023-02-12T14:03:32;9.13;;;7.97;;
40931;SDS011;36257;46.052;12.540;2023-02-12T14:06:06;10.35;;;8.45;;
40931;SDS011;36257;46.052;12.540;2023-02-12T14:08:44;9.60;;;8.60;;
40931;SDS011;36257;46.052;12.540;2023-02-12T14:11:16;10.38;;;8.45;;
40931;SDS011;36257;46.052;12.540;2023-02-12T14:13:54;10.18;;;9.07;;
40931;SDS011;36257;46.052;12.540;2023-02-12T14:22:00;11.63;;;9.82;;
40931;SDS011;36257;46.052;12.540;2023-02-12T14:27:05;10.20;;;9.18;;
40931;SDS011;36257;46.052;12.540;2023-02-12T14:37:54;9.38;;;8.38;;
40931;SDS011;36257;46.052;12.540;2023-02-12T14:45:50;11.02;;;8.93;;
40931;SDS011;36257;46.052;12.540;2023-02-12T14:51:32;9.82;;;8.73;;
40931;SDS011;36257;46.052;12.540;2023-02-12T14:54:35;10.07;;;8.52;;
40931;SDS011;36257;46.052;12.540;2023-02-12T15:00:13;11.40;;;8.90;;
40931;SDS011;36257;46.052;12.540;2023-02-12T15:03:26;13.90;;;9.68;;
40931;SDS011;36257;46.052;12.540;2023-02-12T15:05:55;18.42;;;10.63;;
40931;SDS011;36257;46.052;12.540;2023-02-12T15:11:12;15.18;;;9.48;;
40931;SDS011;36257;46.052;12.540;2023-02-12T15:16:28;33.47;;;19.55;;
40931;SDS011;36257;46.052;12.540;2023-02-12T15:18:59;21.00;;;13.98;;
40931;SDS011;36257;46.052;12.540;2023-02-12T15:21:30;10.82;;;9.73;;
40931;SDS011;36257;46.052;12.540;2023-02-12T15:26:30;11.98;;;10.15;;
40931;SDS011;36257;46.052;12.540;2023-02-12T15:28:58;11.00;;;9.38;;
40931;SDS011;36257;46.052;12.540;2023-02-12T15:31:25;13.38;;;10.65;;
40931;SDS011;36257;46.052;12.540;2023-02-12T15:33:53;13.77;;;10.57;;
40931;SDS011;36257;46.052;12.540;2023-02-12T15:36:24;12.48;;;10.95;;
40931;SDS011;36257;46.052;12.540;2023-02-12T15:38:53;13.52;;;11.55;;
40931;SDS011;36257;46.052;12.540;2023-02-12T15:41:33;17.17;;;12.80;;
40931;SDS011;36257;46.052;12.540;2023-02-12T15:44:47;18.42;;;14.43;;
40931;SDS011;36257;46.052;12.540;2023-02-12T15:46:55;17.88;;;14.55;;
40931;SDS011;36257;46.052;12.540;2023-02-12T15:49:24;18.52;;;15.48;;
40931;SDS011;36257;46.052;12.540;2023-02-12T15:54:26;19.83;;;16.33;;
40931;SDS011;36257;46.052;12.540;2023-02-12T15:56:53;21.63;;;17.75;;
40931;SDS011;36257;46.052;12.540;2023-02-12T15:59:22;25.27;;;19.15;;
40931;SDS011;36257;46.052;12.540;2023-02-12T16:01:57;29.48;;;21.30;;
40931;SDS011;36257;46.052;12.540;2023-02-12T16:04:27;27.83;;;19.08;;
40931;SDS011;36257;46.052;12.540;2023-02-12T16:06:58;30.88;;;20.75;;
40931;SDS011;36257;46.052;12.540;2023-02-12T16:09:27;24.45;;;18.55;;
40931;SDS011;36257;46.052;12.540;2023-02-12T16:11:55;22.23;;;16.40;;
40931;SDS011;36257;46.052;12.540;2023-02-12T16:17:33;26.17;;;18.35;;
40931;SDS011;36257;46.052;12.540;2023-02-12T16:22:40;20.70;;;15.43;;
40931;SDS011;36257;46.052;12.540;2023-02-12T16:27:56;19.00;;;15.10;;
40931;SDS011;36257;46.052;12.540;2023-02-12T16:30:32;17.42;;;13.57;;
40931;SDS011;36257;46.052;12.540;2023-02-12T16:33:03;19.38;;;14.75;;
40931;SDS011;36257;46.052;12.540;2023-02-12T16:35:59;19.33;;;15.07;;
40931;SDS011;36257;46.052;12.540;2023-02-12T16:43:45;18.92;;;15.63;;
40931;SDS011;36257;46.052;12.540;2023-02-12T16:48:45;33.03;;;22.92;;
40931;SDS011;36257;46.052;12.540;2023-02-12T16:51:24;29.38;;;22.00;;
40931;SDS011;36257;46.052;12.540;2023-02-12T16:53:53;23.47;;;17.50;;
40931;SDS011;36257;46.052;12.540;2023-02-12T16:56:21;29.52;;;21.98;;
40931;SDS011;36257;46.052;12.540;2023-02-12T16:58:53;30.75;;;22.15;;
40931;SDS011;36257;46.052;12.540;2023-02-12T17:01:25;49.90;;;33.03;;
40931;SDS011;36257;46.052;12.540;2023-02-12T17:03:53;46.95;;;31.42;;
40931;SDS011;36257;46.052;12.540;2023-02-12T17:06:23;54.83;;;34.08;;
40931;SDS011;36257;46.052;12.540;2023-02-12T17:08:51;57.92;;;37.63;;
40931;SDS011;36257;46.052;12.540;2023-02-12T17:11:17;90.13;;;50.40;;
40931;SDS011;36257;46.052;12.540;2023-02-12T17:13:44;84.22;;;48.55;;
40931;SDS011;36257;46.052;12.540;2023-02-12T17:16:11;100.57;;;57.97;;
40931;SDS011;36257;46.052;12.540;2023-02-12T17:18:37;68.88;;;43.13;;
40931;SDS011;36257;46.052;12.540;2023-02-12T17:24:05;101.38;;;57.38;;
40931;SDS011;36257;46.052;12.540;2023-02-12T17:26:38;130.95;;;69.43;;
40931;SDS011;36257;46.052;12.540;2023-02-12T17:29:04;97.25;;;58.42;;
40931;SDS011;36257;46.052;12.540;2023-02-12T17:31:31;67.10;;;41.13;;
40931;SDS011;36257;46.052;12.540;2023-02-12T17:33:58;79.65;;;48.80;;
40931;SDS011;36257;46.052;12.540;2023-02-12T17:36:24;49.00;;;34.47;;
40931;SDS011;36257;46.052;12.540;2023-02-12T17:38:50;31.08;;;24.90;;
40931;SDS011;36257;46.052;12.540;2023-02-12T17:41:16;32.10;;;24.73;;
40931;SDS011;36257;46.052;12.540;2023-02-12T17:43:42;28.45;;;23.60;;
40931;SDS011;36257;46.052;12.540;2023-02-12T17:46:11;36.07;;;28.30;;
40931;SDS011;36257;46.052;12.540;2023-02-12T17:48:40;28.03;;;23.60;;
40931;SDS011;36257;46.052;12.540;2023-02-12T17:51:07;27.90;;;23.13;;
40931;SDS011;36257;46.052;12.540;2023-02-12T17:53:35;51.40;;;34.90;;
40931;SDS011;36257;46.052;12.540;2023-02-12T17:56:01;28.30;;;20.57;;
40931;SDS011;36257;46.052;12.540;2023-02-12T17:58:27;32.17;;;25.73;;
40931;SDS011;36257;46.052;12.540;2023-02-12T18:00:55;32.88;;;25.33;;
40931;SDS011;36257;46.052;12.540;2023-02-12T18:03:21;38.30;;;25.93;;
40931;SDS011;36257;46.052;12.540;2023-02-12T18:05:46;31.57;;;25.00;;
40931;SDS011;36257;46.052;12.540;2023-02-12T18:08:12;26.43;;;19.50;;
40931;SDS011;36257;46.052;12.540;2023-02-12T18:10:39;23.50;;;18.87;;
40931;SDS011;36257;46.052;12.540;2023-02-12T18:13:05;19.27;;;15.48;;
40931;SDS011;36257;46.052;12.540;2023-02-12T18:15:31;18.40;;;14.97;;
40931;SDS011;36257;46.052;12.540;2023-02-12T18:17:57;21.87;;;17.63;;
40931;SDS011;36257;46.052;12.540;2023-02-12T18:20:22;19.40;;;15.83;;